createdAt,value
2023-04-19T00:01:23.417Z,20.52
2023-04-19T00:03:57.251Z,22.77
2023-04-19T00:06:31.953Z,18.45
2023-04-19T00:09:07.251Z,20.50
2023-04-19T00:11:40.734Z,20.27
2023-04-19T00:14:14.788Z,20.88
2023-04-19T00:16:48.529Z,21.63
2023-04-19T00:19:23.353Z,20.40
2023-04-19T00:21:56.802Z,19.17
2023-04-19T00:24:32.145Z,20.60
2023-04-19T00:27:05.782Z,21.67
2023-04-19T00:29:39.329Z,23.33
2023-04-19T00:32:12.770Z,22.17
2023-04-19T00:34:46.385Z,21.42
2023-04-19T00:37:19.923Z,20.10
2023-04-19T00:39:54.768Z,19.30
2023-04-19T00:42:28.220Z,24.08
2023-04-19T00:45:01.698Z,23.00
2023-04-19T00:47:35.661Z,20.25
2023-04-19T00:50:10.327Z,22.13
2023-04-19T00:52:43.926Z,17.95
2023-04-19T00:55:18.806Z,21.00
2023-04-19T00:57:52.893Z,21.70
2023-04-19T01:00:26.563Z,20.65
2023-04-19T01:03:00.189Z,26.73
2023-04-19T01:05:33.856Z,24.52
2023-04-19T01:08:08.429Z,20.50
2023-04-19T01:10:43.336Z,18.20
2023-04-19T01:13:16.856Z,16.55
2023-04-19T01:15:51.660Z,20.45
2023-04-19T01:18:32.873Z,18.83
2023-04-19T01:21:06.851Z,18.98
2023-04-19T01:23:42.049Z,18.77
2023-04-19T01:26:16.275Z,26.50
2023-04-19T01:28:49.712Z,25.27
2023-04-19T01:31:23.371Z,22.42
2023-04-19T01:33:56.873Z,18.42
2023-04-19T01:36:31.131Z,18.75
2023-04-19T01:39:06.266Z,16.88
2023-04-19T01:41:39.771Z,14.63
2023-04-19T01:44:14.004Z,17.75
2023-04-19T01:46:47.796Z,21.20
2023-04-19T01:49:21.296Z,16.38
2023-04-19T01:51:55.669Z,23.63
2023-04-19T01:54:30.509Z,20.63
2023-04-19T01:57:04.022Z,22.42
2023-04-19T01:59:37.806Z,18.70
2023-04-19T02:02:11.711Z,20.33
2023-04-19T02:04:45.290Z,17.63
2023-04-19T02:07:18.752Z,21.33
2023-04-19T02:09:53.652Z,19.95
2023-04-19T02:12:28.969Z,21.15
2023-04-19T02:15:03.329Z,18.13
2023-04-19T02:17:38.861Z,18.70
2023-04-19T02:20:12.786Z,25.60
2023-04-19T02:22:47.864Z,19.00
2023-04-19T02:25:22.856Z,18.33
2023-04-19T02:27:56.314Z,18.08
2023-04-19T02:30:29.856Z,16.30
2023-04-19T02:33:03.366Z,23.40
2023-04-19T02:35:37.047Z,20.98
2023-04-19T02:38:10.584Z,19.13
2023-04-19T02:40:45.507Z,17.80
2023-04-19T02:43:18.963Z,15.98
2023-04-19T02:45:52.722Z,19.65
2023-04-19T02:48:27.915Z,19.67
2023-04-19T02:51:01.755Z,26.23
2023-04-19T02:53:35.831Z,20.33
2023-04-19T02:56:11.202Z,19.27
2023-04-19T02:58:44.709Z,19.42
2023-04-19T03:01:18.754Z,17.95
2023-04-19T03:03:52.303Z,21.40
2023-04-19T03:06:26.152Z,21.88
2023-04-19T03:08:59.692Z,18.27
2023-04-19T03:11:35.837Z,20.35
2023-04-19T03:14:09.461Z,20.48
2023-04-19T03:16:44.838Z,15.35
2023-04-19T03:19:18.510Z,17.35
2023-04-19T03:21:56.628Z,19.98
2023-04-19T03:24:31.132Z,15.75
2023-04-19T03:27:11.487Z,16.75
2023-04-19T03:29:46.689Z,21.13
2023-04-19T03:32:21.944Z,17.45
2023-04-19T03:34:55.448Z,24.05
2023-04-19T03:37:28.918Z,22.35
2023-04-19T03:40:02.986Z,14.60
2023-04-19T03:42:41.432Z,15.85
2023-04-19T03:45:23.140Z,14.48
2023-04-19T03:47:56.730Z,22.73
2023-04-19T03:50:31.462Z,20.05
2023-04-19T03:53:06.374Z,22.40
2023-04-19T03:55:41.086Z,15.95
2023-04-19T03:58:16.364Z,19.85
2023-04-19T04:00:57.075Z,20.95
2023-04-19T04:03:31.156Z,19.95
2023-04-19T04:06:05.006Z,17.80
2023-04-19T04:08:38.514Z,16.35
2023-04-19T04:11:12.283Z,16.20
2023-04-19T04:13:49.575Z,16.95
2023-04-19T04:16:30.385Z,16.17
2023-04-19T04:19:04.275Z,23.42
2023-04-19T04:21:41.021Z,30.92
2023-04-19T04:24:15.252Z,23.48
2023-04-19T04:27:00.997Z,20.65
2023-04-19T04:29:39.260Z,18.05
2023-04-19T04:32:14.650Z,17.48
2023-04-19T04:34:49.098Z,22.02
2023-04-19T04:37:34.532Z,27.00
2023-04-19T04:40:10.022Z,21.90
2023-04-19T04:42:45.614Z,20.83
2023-04-19T04:45:21.285Z,22.85
2023-04-19T04:47:57.851Z,24.42
2023-04-19T04:50:31.513Z,22.45
2023-04-19T04:53:05.582Z,23.17
2023-04-19T04:55:39.774Z,19.00
2023-04-19T04:58:13.492Z,27.00
2023-04-19T05:01:10.859Z,20.17
2023-04-19T05:03:47.035Z,26.38
2023-04-19T05:06:24.720Z,24.95
2023-04-19T05:08:58.360Z,21.60
2023-04-19T05:11:38.721Z,15.07
2023-04-19T05:14:12.913Z,13.13
2023-04-19T05:16:48.003Z,15.23
2023-04-19T05:19:21.534Z,12.50
2023-04-19T05:22:01.096Z,14.60
2023-04-19T05:24:34.821Z,9.82
2023-04-19T05:27:09.513Z,13.43
2023-04-19T05:29:43.002Z,12.35
2023-04-19T05:32:18.055Z,13.35
2023-04-19T05:34:57.434Z,11.75
2023-04-19T05:37:31.306Z,15.93
2023-04-19T05:40:05.862Z,14.77
2023-04-19T05:42:39.957Z,21.00
2023-04-19T05:45:15.722Z,30.10
2023-04-19T05:47:50.978Z,21.83
2023-04-19T05:50:46.566Z,18.27
2023-04-19T05:53:46.143Z,16.35
2023-04-19T05:56:19.999Z,16.92
2023-04-19T05:58:55.735Z,12.30
2023-04-19T06:01:29.519Z,12.00
2023-04-19T06:04:05.272Z,11.18
2023-04-19T06:06:39.282Z,8.80
2023-04-19T06:09:13.759Z,7.70
2023-04-19T06:11:51.130Z,10.27
2023-04-19T06:14:25.585Z,8.30
2023-04-19T06:16:59.104Z,10.23
2023-04-19T06:19:34.145Z,6.97
2023-04-19T06:22:07.977Z,8.27
2023-04-19T06:24:41.433Z,9.55
2023-04-19T06:27:17.227Z,8.60
2023-04-19T06:29:51.353Z,8.82
2023-04-19T06:32:25.956Z,7.80
2023-04-19T06:35:00.963Z,5.78
2023-04-19T06:37:35.086Z,9.18
2023-04-19T06:40:09.940Z,6.65
2023-04-19T06:42:43.443Z,9.05
2023-04-19T06:45:18.753Z,6.40
2023-04-19T06:47:52.300Z,5.93
2023-04-19T06:50:27.379Z,5.60
2023-04-19T06:53:02.290Z,7.30
2023-04-19T06:55:37.862Z,5.82
2023-04-19T06:58:11.380Z,5.93
2023-04-19T07:00:44.892Z,7.95
2023-04-19T07:03:18.482Z,5.13
2023-04-19T07:05:56.176Z,7.78
2023-04-19T07:08:46.260Z,5.65
2023-04-19T07:11:22.626Z,5.35
2023-04-19T07:13:56.423Z,7.50
2023-04-19T07:16:30.293Z,8.63
2023-04-19T07:19:03.877Z,11.68
2023-04-19T07:21:39.647Z,5.85
2023-04-19T07:24:13.268Z,6.18
2023-04-19T07:26:46.809Z,7.43
2023-04-19T07:29:20.490Z,7.75
2023-04-19T07:31:55.509Z,5.53
2023-04-19T07:34:29.079Z,6.53
2023-04-19T07:37:04.167Z,5.43
2023-04-19T07:39:37.702Z,6.75
2023-04-19T07:42:11.197Z,6.32
2023-04-19T07:44:45.086Z,4.80
2023-04-19T07:47:18.681Z,5.47
2023-04-19T07:49:53.647Z,6.13
2023-04-19T07:52:28.758Z,11.95
2023-04-19T07:55:02.343Z,8.73
2023-04-19T07:57:36.409Z,8.20
2023-04-19T08:00:11.205Z,9.73
2023-04-19T08:02:54.241Z,8.23
2023-04-19T08:05:28.272Z,9.10
2023-04-19T08:08:03.523Z,7.10
2023-04-19T08:10:37.165Z,10.02
2023-04-19T08:13:10.683Z,11.98
2023-04-19T08:18:21.336Z,13.82
2023-04-19T08:20:56.261Z,8.82
2023-04-19T08:23:41.291Z,8.55
2023-04-19T08:26:22.813Z,9.68
2023-04-19T08:28:56.378Z,12.60
2023-04-19T08:31:29.978Z,13.10
2023-04-19T08:34:04.019Z,12.90
2023-04-19T08:36:43.382Z,15.43
2023-04-19T08:39:32.472Z,14.60
2023-04-19T08:42:24.188Z,15.93
2023-04-19T08:47:58.969Z,17.42
2023-04-19T08:50:42.750Z,14.52
2023-04-19T08:53:29.454Z,13.88
2023-04-19T08:56:17.479Z,13.82
2023-04-19T08:59:07.613Z,13.50
2023-04-19T09:01:48.062Z,16.55
2023-04-19T09:07:00.630Z,15.98
2023-04-19T09:09:40.830Z,19.70
2023-04-19T09:12:20.991Z,18.20
2023-04-19T09:15:01.731Z,16.17
2023-04-19T09:17:39.250Z,17.80
2023-04-19T09:20:13.022Z,15.80
2023-04-19T09:23:04.871Z,12.82
2023-04-19T09:25:59.250Z,19.60
2023-04-19T09:28:33.415Z,20.13
2023-04-19T09:31:30.275Z,16.75
2023-04-19T09:34:18.064Z,18.88
2023-04-19T09:37:00.732Z,16.13
2023-04-19T09:39:42.436Z,14.77
2023-04-19T09:42:20.722Z,14.45
2023-04-19T09:47:44.022Z,13.95
2023-04-19T09:50:23.900Z,11.98
2023-04-19T09:53:00.202Z,16.40
2023-04-19T09:55:45.505Z,16.08
2023-04-19T09:58:38.308Z,12.05
2023-04-19T10:01:24.758Z,16.20
2023-04-19T10:04:10.296Z,12.60
2023-04-19T10:07:19.341Z,13.10
2023-04-19T10:09:54.335Z,11.48
2023-04-19T10:15:06.820Z,11.15
2023-04-19T10:17:45.422Z,13.90
2023-04-19T10:20:24.982Z,17.13
2023-04-19T10:22:58.769Z,14.63
2023-04-19T10:25:32.372Z,13.82
2023-04-19T10:28:06.389Z,17.90
2023-04-19T10:30:54.734Z,18.05
2023-04-19T10:33:31.673Z,19.63
2023-04-19T10:36:09.631Z,17.75
2023-04-19T10:38:44.755Z,19.33
2023-04-19T10:41:19.403Z,17.63
2023-04-19T10:44:11.559Z,21.27
2023-04-19T10:46:45.178Z,17.02
2023-04-19T10:49:25.133Z,21.25
2023-04-19T10:52:00.246Z,17.23
2023-04-19T10:54:36.550Z,17.88
2023-04-19T10:57:11.548Z,16.23
2023-04-19T10:59:46.109Z,18.98
2023-04-19T11:02:29.495Z,10.52
2023-04-19T11:05:05.560Z,12.23
2023-04-19T11:07:41.172Z,15.50
2023-04-19T11:10:14.889Z,9.93
2023-04-19T11:12:48.393Z,7.28
2023-04-19T11:15:24.287Z,7.40
2023-04-19T11:18:12.132Z,11.57
2023-04-19T11:20:54.669Z,3.38
2023-04-19T11:23:28.222Z,6.88
2023-04-19T11:26:01.730Z,4.47
2023-04-19T11:28:35.341Z,2.63
2023-04-19T11:31:08.906Z,3.97
2023-04-19T11:33:45.123Z,3.53
2023-04-19T11:36:20.132Z,3.80
2023-04-19T11:38:54.546Z,3.08
2023-04-19T11:41:28.092Z,3.22
2023-04-19T11:44:01.603Z,7.78
2023-04-19T11:46:35.218Z,2.58
2023-04-19T11:49:08.853Z,3.05
2023-04-19T11:51:46.750Z,3.92
2023-04-19T11:54:20.208Z,3.42
2023-04-19T11:57:04.770Z,2.28
2023-04-19T11:59:38.585Z,7.20
2023-04-19T12:02:13.925Z,3.40
2023-04-19T12:04:47.695Z,4.78
2023-04-19T12:07:23.429Z,3.42
2023-04-19T12:09:56.920Z,4.65
2023-04-19T12:12:33.777Z,5.22
2023-04-19T12:15:08.409Z,3.08
2023-04-19T12:17:57.866Z,3.35
2023-04-19T12:20:32.906Z,3.28
2023-04-19T12:23:11.198Z,3.67
2023-04-19T12:25:46.645Z,5.28
2023-04-19T12:28:20.233Z,2.92
2023-04-19T12:30:54.097Z,2.63
2023-04-19T12:33:27.796Z,4.88
2023-04-19T12:36:01.527Z,3.53
2023-04-19T12:38:37.665Z,4.28
2023-04-19T12:41:11.233Z,4.15
2023-04-19T12:43:44.816Z,4.85
2023-04-19T12:46:18.532Z,5.55
2023-04-19T12:48:52.140Z,3.83
2023-04-19T12:51:25.779Z,3.58
2023-04-19T12:54:01.331Z,4.75
2023-04-19T12:56:37.820Z,3.60
2023-04-19T12:59:11.581Z,4.00
2023-04-19T13:01:45.247Z,5.60
2023-04-19T13:04:19.267Z,4.03
2023-04-19T13:06:53.154Z,3.22
2023-04-19T13:09:28.633Z,3.30
2023-04-19T13:12:02.224Z,4.53
2023-04-19T13:14:35.897Z,4.57
2023-04-19T13:17:09.417Z,4.05
2023-04-19T13:19:43.122Z,3.97
2023-04-19T13:22:16.721Z,5.03
2023-04-19T13:24:51.626Z,6.63
2023-04-19T13:27:25.207Z,6.63
2023-04-19T13:29:58.744Z,10.13
2023-04-19T13:32:32.526Z,5.45
2023-04-19T13:35:06.778Z,2.80
2023-04-19T13:37:42.380Z,5.85
2023-04-19T13:40:19.724Z,8.05
2023-04-19T13:42:54.957Z,4.57
2023-04-19T13:45:28.685Z,5.57
2023-04-19T13:48:02.268Z,12.10
2023-04-19T13:50:35.880Z,7.18
2023-04-19T13:53:09.536Z,5.78
2023-04-19T13:55:44.411Z,3.15
2023-04-19T13:58:18.184Z,5.15
2023-04-19T14:00:51.681Z,10.15
2023-04-19T14:03:26.833Z,5.43
2023-04-19T14:06:00.542Z,3.78
2023-04-19T14:08:34.113Z,7.03
2023-04-19T14:11:08.989Z,6.47
2023-04-19T14:13:42.943Z,6.80
2023-04-19T14:16:16.916Z,5.78
2023-04-19T14:18:50.708Z,5.45
2023-04-19T14:21:24.590Z,4.40
2023-04-19T14:23:58.258Z,4.97
2023-04-19T14:26:33.320Z,6.18
2023-04-19T14:29:06.957Z,3.58
2023-04-19T14:31:40.613Z,5.35
2023-04-19T14:34:15.427Z,5.03
2023-04-19T14:36:51.576Z,4.75
2023-04-19T14:39:25.396Z,4.43
2023-04-19T14:42:00.678Z,6.38
2023-04-19T14:44:34.850Z,7.95
2023-04-19T14:47:10.236Z,8.18
2023-04-19T14:49:44.923Z,7.22
2023-04-19T14:52:18.893Z,7.82
2023-04-19T14:54:52.584Z,6.20
2023-04-19T14:57:28.469Z,8.30
2023-04-19T15:00:02.306Z,5.70
2023-04-19T15:02:37.553Z,7.00
2023-04-19T15:05:11.770Z,8.68
2023-04-19T15:07:45.492Z,7.95
2023-04-19T15:10:19.329Z,6.47
2023-04-19T15:12:54.359Z,7.90
2023-04-19T15:15:27.973Z,7.65
2023-04-19T15:18:01.852Z,8.00
2023-04-19T15:20:35.544Z,6.15
2023-04-19T15:23:09.266Z,6.53
2023-04-19T15:25:43.100Z,6.32
2023-04-19T15:28:18.354Z,7.40
2023-04-19T15:30:59.204Z,7.57
2023-04-19T15:33:32.939Z,9.43
2023-04-19T15:36:07.052Z,9.13
2023-04-19T15:38:41.994Z,7.75
2023-04-19T15:41:18.524Z,5.88
2023-04-19T15:43:53.737Z,7.43
2023-04-19T15:46:27.386Z,6.43
2023-04-19T15:49:01.509Z,8.80
2023-04-19T15:51:35.176Z,8.75
2023-04-19T15:54:08.894Z,11.85
2023-04-19T15:56:42.567Z,7.20
2023-04-19T15:59:17.846Z,8.10
2023-04-19T16:01:51.909Z,5.47
2023-04-19T16:04:25.921Z,8.65
2023-04-19T16:07:00.544Z,8.50
2023-04-19T16:09:34.390Z,6.88
2023-04-19T16:12:08.200Z,6.95
2023-04-19T16:14:43.151Z,6.57
2023-04-19T16:17:16.673Z,8.43
2023-04-19T16:19:50.174Z,5.78
2023-04-19T16:22:23.727Z,5.75
2023-04-19T16:24:57.480Z,5.75
2023-04-19T16:27:31.307Z,7.47
2023-04-19T16:30:07.622Z,7.75
2023-04-19T16:32:41.769Z,10.43
2023-04-19T16:35:15.315Z,7.03
2023-04-19T16:37:48.852Z,9.57
2023-04-19T16:40:23.197Z,7.13
2023-04-19T16:42:57.707Z,9.50
2023-04-19T16:45:32.771Z,8.50
2023-04-19T16:48:06.566Z,10.43
2023-04-19T16:50:40.198Z,13.02
2023-04-19T16:53:13.721Z,5.93
2023-04-19T16:55:47.192Z,12.15
2023-04-19T16:58:20.668Z,5.85
2023-04-19T17:00:55.708Z,8.43
2023-04-19T17:03:30.390Z,7.97
2023-04-19T17:06:04.307Z,8.57
2023-04-19T17:08:38.469Z,9.63
2023-04-19T17:11:11.961Z,10.25
2023-04-19T17:13:45.444Z,10.27
2023-04-19T17:16:20.417Z,8.10
2023-04-19T17:18:56.136Z,9.85
2023-04-19T17:21:29.624Z,8.00
2023-04-19T17:24:03.096Z,12.32
2023-04-19T17:26:36.595Z,12.55
2023-04-19T17:29:10.092Z,11.65
2023-04-19T17:31:45.023Z,14.32
2023-04-19T17:34:18.738Z,12.73
2023-04-19T17:36:53.173Z,6.60
2023-04-19T17:39:27.994Z,33.42
2023-04-19T17:42:01.858Z,10.73
2023-04-19T17:44:35.359Z,8.30
2023-04-19T17:47:10.267Z,12.20
2023-04-19T17:49:47.264Z,9.57
2023-04-19T17:52:20.823Z,9.93
2023-04-19T17:54:54.333Z,12.07
2023-04-19T17:57:29.149Z,14.30
2023-04-19T18:00:07.476Z,9.50
2023-04-19T18:02:44.194Z,24.70
2023-04-19T18:05:18.441Z,14.68
2023-04-19T18:07:52.298Z,17.17
2023-04-19T18:10:26.031Z,12.07
2023-04-19T18:12:59.769Z,14.00
2023-04-19T18:15:33.395Z,11.75
2023-04-19T18:18:08.507Z,10.60
2023-04-19T18:20:42.093Z,12.65
2023-04-19T18:23:15.521Z,18.73
2023-04-19T18:25:55.073Z,9.57
2023-04-19T18:28:28.645Z,12.13
2023-04-19T18:31:02.248Z,12.68
2023-04-19T18:33:37.489Z,22.15
2023-04-19T18:36:11.151Z,41.05
2023-04-19T18:38:44.685Z,43.45
2023-04-19T18:41:18.180Z,41.53
2023-04-19T18:44:18.543Z,77.03
2023-04-19T18:46:45.295Z,67.38
2023-04-19T18:49:20.206Z,186.85
2023-04-19T18:51:53.681Z,85.80
2023-04-19T18:54:27.886Z,84.05
2023-04-19T18:59:38.167Z,32.38
2023-04-19T19:02:11.858Z,40.47
2023-04-19T19:04:56.085Z,34.10
2023-04-19T19:07:36.215Z,33.80
2023-04-19T19:10:19.194Z,32.70
2023-04-19T19:12:55.652Z,19.55
2023-04-19T19:15:29.455Z,32.72
2023-04-19T19:18:03.283Z,27.45
2023-04-19T19:20:39.024Z,30.02
2023-04-19T19:23:13.085Z,47.42
2023-04-19T19:25:50.276Z,37.63
2023-04-19T19:28:23.867Z,30.85
2023-04-19T19:30:57.487Z,28.73
2023-04-19T19:33:32.345Z,26.90
2023-04-19T19:36:08.028Z,27.20
2023-04-19T19:38:41.838Z,44.88
2023-04-19T19:43:52.673Z,49.13
2023-04-19T19:46:30.541Z,39.33
2023-04-19T19:49:05.650Z,39.38
2023-04-19T19:51:56.765Z,38.97
2023-04-19T19:54:31.004Z,43.40
2023-04-19T19:59:49.571Z,34.17
2023-04-19T20:02:27.056Z,52.90
2023-04-19T20:05:01.017Z,55.72
2023-04-19T20:08:00.416Z,52.67
2023-04-19T20:10:33.463Z,59.95
2023-04-19T20:13:07.235Z,83.70
2023-04-19T20:15:41.068Z,74.70
2023-04-19T20:18:14.697Z,68.05
2023-04-19T20:20:48.196Z,70.20
2023-04-19T20:23:23.139Z,74.10
2023-04-19T20:25:57.511Z,70.93
2023-04-19T20:28:31.119Z,56.63
2023-04-19T20:31:04.637Z,58.25
2023-04-19T20:33:38.195Z,64.18
2023-04-19T20:36:13.968Z,55.85
2023-04-19T20:38:48.946Z,55.95
2023-04-19T20:41:22.745Z,58.88
2023-04-19T20:43:59.797Z,64.28
2023-04-19T20:46:36.025Z,57.63
2023-04-19T20:49:09.498Z,53.97
2023-04-19T20:51:43.000Z,56.00
2023-04-19T20:54:18.033Z,66.68
2023-04-19T20:56:54.833Z,67.68
2023-04-19T20:59:28.451Z,75.45
2023-04-19T21:02:02.051Z,60.95
2023-04-19T21:04:36.181Z,54.78
2023-04-19T21:07:09.921Z,58.63
2023-04-19T21:09:44.874Z,56.85
2023-04-19T21:12:18.805Z,60.78
2023-04-19T21:14:52.876Z,57.28
2023-04-19T21:17:26.472Z,55.03
2023-04-19T21:20:00.001Z,60.17
2023-04-19T21:22:33.769Z,62.75
2023-04-19T21:25:10.451Z,66.80
2023-04-19T21:27:44.064Z,80.95
2023-04-19T21:30:17.612Z,61.65
2023-04-19T21:32:51.174Z,56.67
2023-04-19T21:35:24.812Z,65.30
2023-04-19T21:37:58.271Z,53.25
2023-04-19T21:40:33.156Z,47.50
2023-04-19T21:43:06.858Z,47.03
2023-04-19T21:45:40.308Z,52.25
2023-04-19T21:48:13.872Z,46.42
2023-04-19T21:50:47.346Z,46.65
2023-04-19T21:53:21.200Z,45.75
2023-04-19T21:55:56.283Z,40.05
2023-04-19T21:58:34.841Z,46.35
2023-04-19T22:01:08.544Z,51.85
2023-04-19T22:03:42.203Z,44.50
2023-04-19T22:06:17.165Z,46.05
2023-04-19T22:08:51.611Z,39.60
2023-04-19T22:11:28.995Z,47.03
2023-04-19T22:14:03.273Z,44.97
2023-04-19T22:16:37.251Z,63.47
2023-04-19T22:19:10.861Z,63.20
2023-04-19T22:21:44.391Z,62.65
2023-04-19T22:24:17.919Z,57.60
2023-04-19T22:26:53.097Z,62.63
2023-04-19T22:29:26.592Z,60.42
2023-04-19T22:32:00.222Z,60.13
2023-04-19T22:34:33.788Z,63.08
2023-04-19T22:37:07.235Z,59.65
2023-04-19T22:39:40.806Z,74.00
2023-04-19T22:42:15.740Z,71.85
2023-04-19T22:44:49.191Z,56.25
2023-04-19T22:47:22.773Z,63.38
2023-04-19T22:49:56.317Z,67.40
2023-04-19T22:52:29.814Z,64.80
2023-04-19T22:55:03.518Z,73.38
2023-04-19T22:57:38.413Z,64.68
2023-04-19T23:00:12.762Z,60.35
2023-04-19T23:02:46.391Z,66.40
2023-04-19T23:05:20.203Z,59.97
2023-04-19T23:07:53.701Z,54.60
2023-04-19T23:10:27.874Z,49.25
2023-04-19T23:13:02.749Z,62.50
2023-04-19T23:15:37.192Z,57.47
2023-04-19T23:18:11.670Z,63.85
2023-04-19T23:20:45.117Z,60.03
2023-04-19T23:23:19.967Z,63.83
2023-04-19T23:25:53.408Z,71.70
2023-04-19T23:28:28.281Z,53.80
2023-04-19T23:31:01.818Z,56.47
2023-04-19T23:33:35.584Z,56.15
2023-04-19T23:36:09.591Z,52.65
2023-04-19T23:38:43.304Z,54.40
2023-04-19T23:41:17.019Z,63.72
2023-04-19T23:43:52.017Z,50.45
2023-04-19T23:46:25.597Z,60.90
2023-04-19T23:48:59.098Z,48.35
2023-04-19T23:51:32.898Z,52.47
2023-04-19T23:54:06.682Z,47.45
2023-04-19T23:56:40.126Z,46.53
2023-04-19T23:59:15.244Z,48.70
